PWSweather.com
Personal Weather Stations
Station Observations
ILAZIOPO4
Tetto, PomeziaIT 00040

TettoPomeziaIT 00040

Lat: 41.6674809, Lon: 12.5080234

Elevation: 85

Station Type: Davis Vantage Pro2 Plus

http://pomeziameteo.it

High Low Average
Temperature 57.6°F14.2°C 36.1°F2.3°C 52.1°F11.2°C
Dew Point 52.4°F11.3°C 33.7°F0.9°C 46.1°F7.8°C
Winds 31.0 mph 49.9 kmh 1.0 mph 1.6 kmh 14.0 mph SE22.5 kmh SE
Wind Gusts 42.0 mph67.6 kmh 9.0 mph14.5 kmh 23.0 mph37.0 kmh
Humidity 91% 74% 80%
Pressure 29.88 in1011.9 mb 29.46 in997.6 mb -
Precipitation 0.04 in1.0 mm - -
Hour Temp Dew Point Humidity Winds Wind Gusts Pressure Precip Precip Rate Daily Precip Total
12:00 AM 35.0°F1.7°C 32.3°F0.2°C 90% 5.0 mph SE8.0 kmh SE 13.0 mph20.9 kmh 29.93 in1013.5 mb 0.02 in0.5 mm 0.00 in0.0 mm 0.02 in0.5 mm
12:05 AM 34.9°F1.6°C 32.2°F0.1°C 90% 9.0 mph E14.5 kmh E 14.0 mph22.5 kmh 29.92 in1013.2 mb 0.02 in0.5 mm 0.00 in0.0 mm 0.02 in0.5 mm
12:10 AM 34.9°F1.6°C 32.2°F0.1°C 90% 7.0 mph ESE11.3 kmh ESE 14.0 mph22.5 kmh 29.92 in1013.2 mb 0.02 in0.5 mm 0.00 in0.0 mm 0.01 in0.3 mm
12:15 AM 34.9°F1.6°C 32.2°F0.1°C 90% 4.0 mph ESE6.4 kmh ESE 10.0 mph16.1 kmh 29.92 in1013.2 mb 0.03 in0.8 mm 0.12 in3.0 mm 0.02 in0.5 mm
12:20 AM 34.9°F1.6°C 32.2°F0.1°C 90% 6.0 mph ENE9.7 kmh ENE 11.0 mph17.7 kmh 29.92 in1013.2 mb 0.04 in1.0 mm 0.12 in3.0 mm 0.02 in0.5 mm
12:25 AM 34.9°F1.6°C 32.2°F0.1°C 90% 7.0 mph E11.3 kmh E 9.0 mph14.5 kmh 29.91 in1012.9 mb 0.04 in1.0 mm 0.00 in0.0 mm 0.02 in0.5 mm
12:30 AM 34.9°F1.6°C 32.2°F0.1°C 90% 2.0 mph NE3.2 kmh NE 8.0 mph12.9 kmh 29.91 in1012.9 mb 0.04 in1.0 mm 0.00 in0.0 mm 0.02 in0.5 mm
12:35 AM 35.0°F1.7°C 32.3°F0.2°C 90% 3.0 mph E4.8 kmh E 6.0 mph9.7 kmh 29.90 in1012.5 mb 0.05 in1.3 mm 0.12 in3.0 mm 0.03 in0.8 mm
12:40 AM 35.0°F1.7°C 32.3°F0.2°C 90% 1.0 mph E1.6 kmh E 8.0 mph12.9 kmh 29.90 in1012.5 mb 0.04 in1.0 mm 0.00 in0.0 mm 0.03 in0.8 mm
12:45 AM 35.1°F1.7°C 32.7°F0.4°C 91% Calm Calm 8.0 mph12.9 kmh 29.90 in1012.5 mb 0.04 in1.0 mm 0.00 in0.0 mm 0.03 in0.8 mm
12:50 AM 35.4°F1.9°C 33.0°F0.6°C 91% 7.0 mph E11.3 kmh E 9.0 mph14.5 kmh 29.89 in1012.2 mb 0.04 in1.0 mm 0.00 in0.0 mm 0.03 in0.8 mm
12:55 AM 35.6°F2.0°C 33.2°F0.7°C 91% 3.0 mph NE4.8 kmh NE 8.0 mph12.9 kmh 29.89 in1012.2 mb 0.04 in1.0 mm 0.00 in0.0 mm 0.03 in0.8 mm
01:00 AM 36.1°F2.3°C 33.7°F0.9°C 91% 3.0 mph S4.8 kmh S 9.0 mph14.5 kmh 29.88 in1011.9 mb 0.04 in1.0 mm 0.00 in0.0 mm 0.04 in1.0 mm
01:05 AM 36.5°F2.5°C 34.1°F1.2°C 91% 2.0 mph S3.2 kmh S 11.0 mph17.7 kmh 29.88 in1011.9 mb 0.04 in1.0 mm 0.00 in0.0 mm 0.04 in1.0 mm
01:10 AM 37.1°F2.8°C 34.7°F1.5°C 91% 6.0 mph E9.7 kmh E 13.0 mph20.9 kmh 29.88 in1011.9 mb 0.03 in0.8 mm 0.00 in0.0 mm 0.04 in1.0 mm
01:15 AM 37.5°F3.1°C 35.1°F1.7°C 91% 7.0 mph ESE11.3 kmh ESE 11.0 mph17.7 kmh 29.88 in1011.9 mb 0.02 in0.5 mm 0.00 in0.0 mm 0.04 in1.0 mm
01:20 AM 37.8°F3.2°C 35.4°F1.9°C 91% 4.0 mph SE6.4 kmh SE 14.0 mph22.5 kmh 29.88 in1011.9 mb 0.02 in0.5 mm 0.00 in0.0 mm 0.04 in1.0 mm
01:25 AM 38.1°F3.4°C 35.7°F2.1°C 91% 6.0 mph SE9.7 kmh SE 11.0 mph17.7 kmh 29.88 in1011.9 mb 0.02 in0.5 mm 0.00 in0.0 mm 0.04 in1.0 mm
01:30 AM 38.4°F3.6°C 35.7°F2.1°C 90% 9.0 mph SE14.5 kmh SE 13.0 mph20.9 kmh 29.87 in1011.5 mb 0.02 in0.5 mm 0.00 in0.0 mm 0.04 in1.0 mm
01:35 AM 38.6°F3.7°C 35.9°F2.2°C 90% 9.0 mph ESE14.5 kmh ESE 11.0 mph17.7 kmh 29.87 in1011.5 mb 0.01 in0.3 mm 0.00 in0.0 mm 0.04 in1.0 mm
01:40 AM 38.9°F3.8°C 36.2°F2.3°C 90% 9.0 mph ESE14.5 kmh ESE 13.0 mph20.9 kmh 29.87 in1011.5 mb 0.01 in0.3 mm 0.00 in0.0 mm 0.04 in1.0 mm
01:45 AM 39.4°F4.1°C 36.4°F2.4°C 89% 8.0 mph E12.9 kmh E 15.0 mph24.1 kmh 29.87 in1011.5 mb 0.01 in0.3 mm 0.00 in0.0 mm 0.04 in1.0 mm
01:50 AM 39.6°F4.2°C 36.6°F2.6°C 89% 9.0 mph ESE14.5 kmh ESE 10.0 mph16.1 kmh 29.86 in1011.2 mb 0.01 in0.3 mm 0.00 in0.0 mm 0.04 in1.0 mm
01:55 AM 39.9°F4.4°C 36.9°F2.7°C 89% 11.0 mph ESE17.7 kmh ESE 14.0 mph22.5 kmh 29.86 in1011.2 mb 0.01 in0.3 mm 0.00 in0.0 mm 0.04 in1.0 mm
02:00 AM 40.3°F4.6°C 37.0°F2.8°C 88% 6.0 mph E9.7 kmh E 14.0 mph22.5 kmh 29.86 in1011.2 mb 0.00 in0.0 mm 0.00 in0.0 mm 0.04 in1.0 mm
02:05 AM 40.6°F4.8°C 37.3°F2.9°C 88% 9.0 mph ESE14.5 kmh ESE 12.0 mph19.3 kmh 29.86 in1011.2 mb 0.00 in0.0 mm 0.00 in0.0 mm 0.04 in1.0 mm
02:10 AM 40.7°F4.8°C 37.1°F2.8°C 87% 3.0 mph SE4.8 kmh SE 9.0 mph14.5 kmh 29.85 in1010.8 mb 0.00 in0.0 mm 0.00 in0.0 mm 0.04 in1.0 mm
02:15 AM 40.8°F4.9°C 37.2°F2.9°C 87% 5.0 mph E8.0 kmh E 9.0 mph14.5 kmh 29.84 in1010.5 mb 0.00 in0.0 mm 0.00 in0.0 mm 0.04 in1.0 mm
02:20 AM 41.0°F5.0°C 37.4°F3.0°C 87% 1.0 mph SE1.6 kmh SE 11.0 mph17.7 kmh 29.84 in1010.5 mb 0.00 in0.0 mm 0.00 in0.0 mm 0.04 in1.0 mm
02:25 AM 41.3°F5.2°C 37.4°F3.0°C 86% 9.0 mph ESE14.5 kmh ESE 10.0 mph16.1 kmh 29.84 in1010.5 mb 0.00 in0.0 mm 0.00 in0.0 mm 0.04 in1.0 mm
02:30 AM 41.6°F5.3°C 37.7°F3.2°C 86% 7.0 mph SE11.3 kmh SE 11.0 mph17.7 kmh 29.84 in1010.5 mb 0.00 in0.0 mm 0.00 in0.0 mm 0.04 in1.0 mm
02:35 AM 41.9°F5.5°C 37.7°F3.2°C 85% 4.0 mph E6.4 kmh E 9.0 mph14.5 kmh 29.83 in1010.2 mb 0.00 in0.0 mm 0.00 in0.0 mm 0.04 in1.0 mm
02:40 AM 42.1°F5.6°C 37.9°F3.3°C 85% 9.0 mph E14.5 kmh E 10.0 mph16.1 kmh 29.83 in1010.2 mb 0.00 in0.0 mm 0.00 in0.0 mm 0.04 in1.0 mm
02:45 AM 42.5°F5.8°C 38.3°F3.5°C 85% 9.0 mph E14.5 kmh E 12.0 mph19.3 kmh 29.83 in1010.2 mb 0.00 in0.0 mm 0.00 in0.0 mm 0.04 in1.0 mm
02:50 AM 42.9°F6.1°C 38.4°F3.6°C 84% 4.0 mph SE6.4 kmh SE 16.0 mph25.7 kmh 29.83 in1010.2 mb 0.00 in0.0 mm 0.00 in0.0 mm 0.04 in1.0 mm
02:55 AM 43.2°F6.2°C 38.3°F3.5°C 83% 7.0 mph SE11.3 kmh SE 16.0 mph25.7 kmh 29.82 in1009.8 mb 0.00 in0.0 mm 0.00 in0.0 mm 0.04 in1.0 mm
03:00 AM 43.5°F6.4°C 38.6°F3.7°C 83% 10.0 mph SE16.1 kmh SE 13.0 mph20.9 kmh 29.82 in1009.8 mb 0.00 in0.0 mm 0.00 in0.0 mm 0.04 in1.0 mm
03:05 AM 43.8°F6.6°C 38.9°F3.8°C 83% 12.0 mph ESE19.3 kmh ESE 14.0 mph22.5 kmh 29.81 in1009.5 mb 0.00 in0.0 mm 0.00 in0.0 mm 0.04 in1.0 mm
03:10 AM 44.1°F6.7°C 38.9°F3.8°C 82% 8.0 mph SSE12.9 kmh SSE 17.0 mph27.4 kmh 29.81 in1009.5 mb 0.00 in0.0 mm 0.00 in0.0 mm 0.04 in1.0 mm
03:15 AM 44.2°F6.8°C 39.0°F3.9°C 82% 10.0 mph SE16.1 kmh SE 13.0 mph20.9 kmh 29.81 in1009.5 mb 0.00 in0.0 mm 0.00 in0.0 mm 0.04 in1.0 mm
03:20 AM 44.6°F7.0°C 39.4°F4.1°C 82% 13.0 mph SE20.9 kmh SE 19.0 mph30.6 kmh 29.81 in1009.5 mb 0.00 in0.0 mm 0.00 in0.0 mm 0.04 in1.0 mm
03:25 AM 44.8°F7.1°C 39.3°F4.1°C 81% 11.0 mph SE17.7 kmh SE 14.0 mph22.5 kmh 29.81 in1009.5 mb 0.00 in0.0 mm 0.00 in0.0 mm 0.04 in1.0 mm
03:30 AM 45.0°F7.2°C 39.5°F4.2°C 81% 7.0 mph SE11.3 kmh SE 15.0 mph24.1 kmh 29.80 in1009.1 mb 0.00 in0.0 mm 0.00 in0.0 mm 0.04 in1.0 mm
03:35 AM 45.1°F7.3°C 39.6°F4.2°C 81% 10.0 mph SE16.1 kmh SE 15.0 mph24.1 kmh 29.80 in1009.1 mb 0.00 in0.0 mm 0.00 in0.0 mm 0.04 in1.0 mm
03:40 AM 45.3°F7.4°C 39.8°F4.3°C 81% 12.0 mph SE19.3 kmh SE 21.0 mph33.8 kmh 29.80 in1009.1 mb 0.00 in0.0 mm 0.00 in0.0 mm 0.04 in1.0 mm
03:45 AM 45.4°F7.4°C 39.5°F4.2°C 80% 11.0 mph SE17.7 kmh SE 17.0 mph27.4 kmh 29.79 in1008.8 mb 0.00 in0.0 mm 0.00 in0.0 mm 0.04 in1.0 mm
03:50 AM 45.5°F7.5°C 39.6°F4.2°C 80% 17.0 mph SE27.4 kmh SE 20.0 mph32.2 kmh 29.80 in1009.1 mb 0.00 in0.0 mm 0.00 in0.0 mm 0.04 in1.0 mm
03:55 AM 45.6°F7.6°C 39.7°F4.3°C 80% 14.0 mph SE22.5 kmh SE 22.0 mph35.4 kmh 29.79 in1008.8 mb 0.00 in0.0 mm 0.00 in0.0 mm 0.04 in1.0 mm
04:00 AM 45.6°F7.6°C 39.7°F4.3°C 80% 10.0 mph ESE16.1 kmh ESE 22.0 mph35.4 kmh 29.79 in1008.8 mb 0.00 in0.0 mm 0.00 in0.0 mm 0.04 in1.0 mm
04:05 AM 45.6°F7.6°C 39.7°F4.3°C 80% 9.0 mph SSE14.5 kmh SSE 17.0 mph27.4 kmh 29.79 in1008.8 mb 0.00 in0.0 mm 0.00 in0.0 mm 0.04 in1.0 mm
04:10 AM 45.5°F7.5°C 39.6°F4.2°C 80% 12.0 mph ESE19.3 kmh ESE 17.0 mph27.4 kmh 29.79 in1008.8 mb 0.00 in0.0 mm 0.00 in0.0 mm 0.04 in1.0 mm
04:15 AM 45.5°F7.5°C 39.6°F4.2°C 80% 9.0 mph SE14.5 kmh SE 20.0 mph32.2 kmh 29.80 in1009.1 mb 0.00 in0.0 mm 0.00 in0.0 mm 0.04 in1.0 mm
04:20 AM 45.4°F7.4°C 39.5°F4.2°C 80% 7.0 mph SE11.3 kmh SE 15.0 mph24.1 kmh 29.80 in1009.1 mb 0.00 in0.0 mm 0.00 in0.0 mm 0.04 in1.0 mm
04:25 AM 45.3°F7.4°C 39.4°F4.1°C 80% 9.0 mph SE14.5 kmh SE 16.0 mph25.7 kmh 29.79 in1008.8 mb 0.00 in0.0 mm 0.00 in0.0 mm 0.04 in1.0 mm
04:30 AM 45.2°F7.3°C 39.7°F4.3°C 81% 11.0 mph SE17.7 kmh SE 16.0 mph25.7 kmh 29.79 in1008.8 mb 0.00 in0.0 mm 0.00 in0.0 mm 0.04 in1.0 mm
04:35 AM 45.4°F7.4°C 39.5°F4.2°C 80% 8.0 mph SSE12.9 kmh SSE 20.0 mph32.2 kmh 29.79 in1008.8 mb 0.00 in0.0 mm 0.00 in0.0 mm 0.04 in1.0 mm
04:40 AM 45.4°F7.4°C 39.5°F4.2°C 80% 19.0 mph SSE30.6 kmh SSE 19.0 mph30.6 kmh 29.79 in1008.8 mb 0.00 in0.0 mm 0.00 in0.0 mm 0.04 in1.0 mm
04:45 AM 45.4°F7.4°C 39.5°F4.2°C 80% 13.0 mph SE20.9 kmh SE 21.0 mph33.8 kmh 29.78 in1008.5 mb 0.00 in0.0 mm 0.00 in0.0 mm 0.04 in1.0 mm
04:50 AM 45.3°F7.4°C 39.4°F4.1°C 80% 12.0 mph ESE19.3 kmh ESE 19.0 mph30.6 kmh 29.78 in1008.5 mb 0.00 in0.0 mm 0.00 in0.0 mm 0.04 in1.0 mm
04:55 AM 45.3°F7.4°C 39.8°F4.3°C 81% 13.0 mph SE20.9 kmh SE 17.0 mph27.4 kmh 29.78 in1008.5 mb 0.00 in0.0 mm 0.00 in0.0 mm 0.04 in1.0 mm
05:00 AM 45.2°F7.3°C 39.7°F4.3°C 81% 9.0 mph SE14.5 kmh SE 16.0 mph25.7 kmh 29.78 in1008.5 mb 0.00 in0.0 mm 0.00 in0.0 mm 0.04 in1.0 mm
05:05 AM 45.3°F7.4°C 39.8°F4.3°C 81% 11.0 mph SE17.7 kmh SE 17.0 mph27.4 kmh 29.78 in1008.5 mb 0.00 in0.0 mm 0.00 in0.0 mm 0.04 in1.0 mm
05:10 AM 45.2°F7.3°C 39.7°F4.3°C 81% 9.0 mph SE14.5 kmh SE 16.0 mph25.7 kmh 29.79 in1008.8 mb 0.00 in0.0 mm 0.00 in0.0 mm 0.04 in1.0 mm
05:15 AM 45.1°F7.3°C 39.6°F4.2°C 81% 12.0 mph SE19.3 kmh SE 15.0 mph24.1 kmh 29.79 in1008.8 mb 0.00 in0.0 mm 0.00 in0.0 mm 0.04 in1.0 mm
05:20 AM 45.1°F7.3°C 39.6°F4.2°C 81% 10.0 mph E16.1 kmh E 17.0 mph27.4 kmh 29.78 in1008.5 mb 0.00 in0.0 mm 0.00 in0.0 mm 0.04 in1.0 mm
05:25 AM 45.0°F7.2°C 39.5°F4.2°C 81% 4.0 mph SE6.4 kmh SE 19.0 mph30.6 kmh 29.79 in1008.8 mb 0.00 in0.0 mm 0.00 in0.0 mm 0.04 in1.0 mm
05:30 AM 44.9°F7.2°C 39.4°F4.1°C 81% 12.0 mph SE19.3 kmh SE 17.0 mph27.4 kmh 29.78 in1008.5 mb 0.00 in0.0 mm 0.00 in0.0 mm 0.04 in1.0 mm
05:35 AM 44.9°F7.2°C 39.4°F4.1°C 81% 17.0 mph SE27.4 kmh SE 19.0 mph30.6 kmh 29.78 in1008.5 mb 0.00 in0.0 mm 0.00 in0.0 mm 0.04 in1.0 mm
05:40 AM 44.9°F7.2°C 39.4°F4.1°C 81% 10.0 mph SE16.1 kmh SE 19.0 mph30.6 kmh 29.77 in1008.1 mb 0.00 in0.0 mm 0.00 in0.0 mm 0.04 in1.0 mm
05:45 AM 45.0°F7.2°C 39.8°F4.3°C 82% 15.0 mph ESE24.1 kmh ESE 17.0 mph27.4 kmh 29.77 in1008.1 mb 0.00 in0.0 mm 0.00 in0.0 mm 0.04 in1.0 mm
05:50 AM 45.2°F7.3°C 39.7°F4.3°C 81% 16.0 mph E25.7 kmh E 19.0 mph30.6 kmh 29.76 in1007.8 mb 0.00 in0.0 mm 0.00 in0.0 mm 0.04 in1.0 mm
05:55 AM 45.5°F7.5°C 40.3°F4.6°C 82% 12.0 mph SE19.3 kmh SE 20.0 mph32.2 kmh 29.76 in1007.8 mb 0.00 in0.0 mm 0.00 in0.0 mm 0.04 in1.0 mm
06:00 AM 45.8°F7.7°C 40.3°F4.6°C 81% 14.0 mph SE22.5 kmh SE 23.0 mph37.0 kmh 29.76 in1007.8 mb 0.00 in0.0 mm 0.00 in0.0 mm 0.04 in1.0 mm
06:05 AM 45.9°F7.7°C 40.4°F4.7°C 81% 14.0 mph ESE22.5 kmh ESE 20.0 mph32.2 kmh 29.76 in1007.8 mb 0.00 in0.0 mm 0.00 in0.0 mm 0.04 in1.0 mm
06:10 AM 46.1°F7.8°C 40.5°F4.7°C 81% 18.0 mph E29.0 kmh E 21.0 mph33.8 kmh 29.76 in1007.8 mb 0.00 in0.0 mm 0.00 in0.0 mm 0.04 in1.0 mm
06:15 AM 46.1°F7.8°C 40.5°F4.7°C 81% 10.0 mph SE16.1 kmh SE 18.0 mph29.0 kmh 29.76 in1007.8 mb 0.00 in0.0 mm 0.00 in0.0 mm 0.04 in1.0 mm
06:20 AM 46.1°F7.8°C 40.5°F4.7°C 81% 13.0 mph SE20.9 kmh SE 18.0 mph29.0 kmh 29.75 in1007.5 mb 0.00 in0.0 mm 0.00 in0.0 mm 0.04 in1.0 mm
06:25 AM 46.2°F7.9°C 40.6°F4.8°C 81% 13.0 mph ESE20.9 kmh ESE 17.0 mph27.4 kmh 29.75 in1007.5 mb 0.00 in0.0 mm 0.00 in0.0 mm 0.04 in1.0 mm
06:30 AM 46.3°F7.9°C 40.7°F4.8°C 81% 12.0 mph SE19.3 kmh SE 16.0 mph25.7 kmh 29.75 in1007.5 mb 0.00 in0.0 mm 0.00 in0.0 mm 0.04 in1.0 mm
06:35 AM 46.4°F8.0°C 40.5°F4.7°C 80% 12.0 mph E19.3 kmh E 16.0 mph25.7 kmh 29.75 in1007.5 mb 0.00 in0.0 mm 0.00 in0.0 mm 0.04 in1.0 mm
06:40 AM 46.6°F8.1°C 41.0°F5.0°C 81% 7.0 mph SSE11.3 kmh SSE 18.0 mph29.0 kmh 29.75 in1007.5 mb 0.00 in0.0 mm 0.00 in0.0 mm 0.04 in1.0 mm
06:45 AM 46.7°F8.2°C 40.8°F4.9°C 80% 10.0 mph SE16.1 kmh SE 16.0 mph25.7 kmh 29.75 in1007.5 mb 0.00 in0.0 mm 0.00 in0.0 mm 0.04 in1.0 mm
06:50 AM 46.7°F8.2°C 40.8°F4.9°C 80% 10.0 mph SE16.1 kmh SE 13.0 mph20.9 kmh 29.75 in1007.5 mb 0.00 in0.0 mm 0.00 in0.0 mm 0.04 in1.0 mm
06:55 AM 46.7°F8.2°C 40.8°F4.9°C 80% 12.0 mph SE19.3 kmh SE 16.0 mph25.7 kmh 29.74 in1007.1 mb 0.00 in0.0 mm 0.00 in0.0 mm 0.04 in1.0 mm
07:00 AM 46.8°F8.2°C 41.2°F5.1°C 81% 13.0 mph ESE20.9 kmh ESE 17.0 mph27.4 kmh 29.74 in1007.1 mb 0.00 in0.0 mm 0.00 in0.0 mm 0.04 in1.0 mm
07:05 AM 46.9°F8.3°C 41.0°F5.0°C 80% 9.0 mph SSE14.5 kmh SSE 16.0 mph25.7 kmh 29.74 in1007.1 mb 0.00 in0.0 mm 0.00 in0.0 mm 0.04 in1.0 mm
07:10 AM 47.2°F8.4°C 41.3°F5.2°C 80% 9.0 mph SE14.5 kmh SE 16.0 mph25.7 kmh 29.74 in1007.1 mb 0.00 in0.0 mm 0.00 in0.0 mm 0.04 in1.0 mm
07:15 AM 47.4°F8.6°C 41.5°F5.3°C 80% 13.0 mph SE20.9 kmh SE 15.0 mph24.1 kmh 29.73 in1006.8 mb 0.00 in0.0 mm 0.00 in0.0 mm 0.04 in1.0 mm
07:20 AM 47.6°F8.7°C 41.7°F5.4°C 80% 11.0 mph SE17.7 kmh SE 17.0 mph27.4 kmh 29.73 in1006.8 mb 0.00 in0.0 mm 0.00 in0.0 mm 0.04 in1.0 mm
07:25 AM 47.8°F8.8°C 41.9°F5.5°C 80% 10.0 mph SE16.1 kmh SE 17.0 mph27.4 kmh 29.73 in1006.8 mb 0.00 in0.0 mm 0.00 in0.0 mm 0.04 in1.0 mm
07:30 AM 48.0°F8.9°C 42.1°F5.6°C 80% 10.0 mph SE16.1 kmh SE 18.0 mph29.0 kmh 29.73 in1006.8 mb 0.00 in0.0 mm 0.00 in0.0 mm 0.04 in1.0 mm
07:35 AM 48.4°F9.1°C 42.5°F5.8°C 80% 18.0 mph SE29.0 kmh SE 19.0 mph30.6 kmh 29.72 in1006.4 mb 0.00 in0.0 mm 0.00 in0.0 mm 0.04 in1.0 mm
07:40 AM 48.7°F9.3°C 42.4°F5.8°C 79% 11.0 mph SE17.7 kmh SE 20.0 mph32.2 kmh 29.72 in1006.4 mb 0.00 in0.0 mm 0.00 in0.0 mm 0.04 in1.0 mm
07:45 AM 48.7°F9.3°C 42.4°F5.8°C 79% 15.0 mph SE24.1 kmh SE 18.0 mph29.0 kmh 29.72 in1006.4 mb 0.00 in0.0 mm 0.00 in0.0 mm 0.04 in1.0 mm
07:50 AM 48.9°F9.4°C 42.6°F5.9°C 79% 17.0 mph ESE27.4 kmh ESE 19.0 mph30.6 kmh 29.72 in1006.4 mb 0.00 in0.0 mm 0.00 in0.0 mm 0.04 in1.0 mm
07:55 AM 49.0°F9.4°C 42.7°F5.9°C 79% 14.0 mph ESE22.5 kmh ESE 21.0 mph33.8 kmh 29.71 in1006.1 mb 0.00 in0.0 mm 0.00 in0.0 mm 0.04 in1.0 mm
08:00 AM 49.2°F9.6°C 42.9°F6.1°C 79% 14.0 mph SE22.5 kmh SE 22.0 mph35.4 kmh 29.72 in1006.4 mb 0.00 in0.0 mm 0.00 in0.0 mm 0.04 in1.0 mm
08:05 AM 49.5°F9.7°C 43.2°F6.2°C 79% 14.0 mph SSE22.5 kmh SSE 19.0 mph30.6 kmh 29.71 in1006.1 mb 0.00 in0.0 mm 0.00 in0.0 mm 0.04 in1.0 mm
08:10 AM 49.6°F9.8°C 43.3°F6.3°C 79% 9.0 mph SE14.5 kmh SE 18.0 mph29.0 kmh 29.71 in1006.1 mb 0.00 in0.0 mm 0.00 in0.0 mm 0.04 in1.0 mm
08:15 AM 49.7°F9.8°C 43.4°F6.3°C 79% 13.0 mph SE20.9 kmh SE 19.0 mph30.6 kmh 29.71 in1006.1 mb 0.00 in0.0 mm 0.00 in0.0 mm 0.04 in1.0 mm
08:20 AM 50.0°F10.0°C 43.4°F6.3°C 78% 18.0 mph ESE29.0 kmh ESE 22.0 mph35.4 kmh 29.71 in1006.1 mb 0.00 in0.0 mm 0.00 in0.0 mm 0.04 in1.0 mm
08:25 AM 50.0°F10.0°C 43.4°F6.3°C 78% 9.0 mph SE14.5 kmh SE 17.0 mph27.4 kmh 29.71 in1006.1 mb 0.00 in0.0 mm 0.00 in0.0 mm 0.04 in1.0 mm
08:30 AM 50.1°F10.1°C 43.5°F6.4°C 78% 14.0 mph ESE22.5 kmh ESE 20.0 mph32.2 kmh 29.70 in1005.8 mb 0.00 in0.0 mm 0.00 in0.0 mm 0.04 in1.0 mm
08:35 AM 50.1°F10.1°C 43.5°F6.4°C 78% 9.0 mph SSE14.5 kmh SSE 21.0 mph33.8 kmh 29.70 in1005.8 mb 0.00 in0.0 mm 0.00 in0.0 mm 0.04 in1.0 mm
08:40 AM 50.2°F10.1°C 43.6°F6.4°C 78% 12.0 mph SSE19.3 kmh SSE 22.0 mph35.4 kmh 29.71 in1006.1 mb 0.00 in0.0 mm 0.00 in0.0 mm 0.04 in1.0 mm
08:45 AM 50.4°F10.2°C 43.8°F6.6°C 78% 12.0 mph SSE19.3 kmh SSE 22.0 mph35.4 kmh 29.70 in1005.8 mb 0.00 in0.0 mm 0.00 in0.0 mm 0.04 in1.0 mm
08:50 AM 50.4°F10.2°C 43.8°F6.6°C 78% 14.0 mph SSE22.5 kmh SSE 24.0 mph38.6 kmh 29.70 in1005.8 mb 0.00 in0.0 mm 0.00 in0.0 mm 0.04 in1.0 mm
08:55 AM 50.3°F10.2°C 43.7°F6.5°C 78% 15.0 mph SE24.1 kmh SE 19.0 mph30.6 kmh 29.69 in1005.4 mb 0.00 in0.0 mm 0.00 in0.0 mm 0.04 in1.0 mm
09:00 AM 50.3°F10.2°C 43.7°F6.5°C 78% 10.0 mph SE16.1 kmh SE 22.0 mph35.4 kmh 29.69 in1005.4 mb 0.00 in0.0 mm 0.00 in0.0 mm 0.04 in1.0 mm
09:05 AM 50.4°F10.2°C 43.8°F6.6°C 78% 13.0 mph SE20.9 kmh SE 26.0 mph41.8 kmh 29.69 in1005.4 mb 0.00 in0.0 mm 0.00 in0.0 mm 0.04 in1.0 mm
09:10 AM 50.4°F10.2°C 43.8°F6.6°C 78% 12.0 mph SE19.3 kmh SE 27.0 mph43.5 kmh 29.68 in1005.1 mb 0.00 in0.0 mm 0.00 in0.0 mm 0.04 in1.0 mm
09:15 AM 50.3°F10.2°C 43.7°F6.5°C 78% 14.0 mph SE22.5 kmh SE 25.0 mph40.2 kmh 29.67 in1004.7 mb 0.00 in0.0 mm 0.00 in0.0 mm 0.04 in1.0 mm
09:20 AM 50.4°F10.2°C 43.8°F6.6°C 78% 15.0 mph ESE24.1 kmh ESE 27.0 mph43.5 kmh 29.67 in1004.7 mb 0.00 in0.0 mm 0.00 in0.0 mm 0.04 in1.0 mm
09:25 AM 50.4°F10.2°C 43.8°F6.6°C 78% 15.0 mph SE24.1 kmh SE 23.0 mph37.0 kmh 29.67 in1004.7 mb 0.00 in0.0 mm 0.00 in0.0 mm 0.04 in1.0 mm
09:30 AM 50.5°F10.3°C 43.8°F6.6°C 78% 15.0 mph ESE24.1 kmh ESE 27.0 mph43.5 kmh 29.66 in1004.4 mb 0.00 in0.0 mm 0.00 in0.0 mm 0.04 in1.0 mm
09:35 AM 50.5°F10.3°C 43.8°F6.6°C 78% 12.0 mph SSE19.3 kmh SSE 27.0 mph43.5 kmh 29.66 in1004.4 mb 0.00 in0.0 mm 0.00 in0.0 mm 0.04 in1.0 mm
09:40 AM 50.4°F10.2°C 44.1°F6.7°C 79% 20.0 mph SE32.2 kmh SE 25.0 mph40.2 kmh 29.66 in1004.4 mb 0.00 in0.0 mm 0.00 in0.0 mm 0.04 in1.0 mm
09:45 AM 50.5°F10.3°C 44.2°F6.8°C 79% 16.0 mph ESE25.7 kmh ESE 30.0 mph48.3 kmh 29.66 in1004.4 mb 0.00 in0.0 mm 0.00 in0.0 mm 0.04 in1.0 mm
09:50 AM 50.5°F10.3°C 44.2°F6.8°C 79% 13.0 mph E20.9 kmh E 30.0 mph48.3 kmh 29.65 in1004.1 mb 0.00 in0.0 mm 0.00 in0.0 mm 0.04 in1.0 mm
09:55 AM 50.7°F10.4°C 44.4°F6.9°C 79% 20.0 mph SE32.2 kmh SE 27.0 mph43.5 kmh 29.65 in1004.1 mb 0.00 in0.0 mm 0.00 in0.0 mm 0.04 in1.0 mm
10:00 AM 50.8°F10.4°C 44.5°F6.9°C 79% 24.0 mph SE38.6 kmh SE 29.0 mph46.7 kmh 29.65 in1004.1 mb 0.00 in0.0 mm 0.00 in0.0 mm 0.04 in1.0 mm
10:05 AM 50.9°F10.5°C 44.6°F7.0°C 79% 20.0 mph SE32.2 kmh SE 32.0 mph51.5 kmh 29.65 in1004.1 mb 0.00 in0.0 mm 0.00 in0.0 mm 0.04 in1.0 mm
10:10 AM 51.0°F10.6°C 44.7°F7.1°C 79% 16.0 mph E25.7 kmh E 29.0 mph46.7 kmh 29.64 in1003.7 mb 0.00 in0.0 mm 0.00 in0.0 mm 0.04 in1.0 mm
10:15 AM 51.0°F10.6°C 44.7°F7.1°C 79% 18.0 mph ESE29.0 kmh ESE 25.0 mph40.2 kmh 29.64 in1003.7 mb 0.00 in0.0 mm 0.00 in0.0 mm 0.04 in1.0 mm
10:20 AM 51.1°F10.6°C 44.8°F7.1°C 79% 16.0 mph SE25.7 kmh SE 25.0 mph40.2 kmh 29.64 in1003.7 mb 0.00 in0.0 mm 0.00 in0.0 mm 0.04 in1.0 mm
10:25 AM 51.2°F10.7°C 44.9°F7.2°C 79% 16.0 mph SE25.7 kmh SE 24.0 mph38.6 kmh 29.64 in1003.7 mb 0.00 in0.0 mm 0.00 in0.0 mm 0.04 in1.0 mm
10:30 AM 51.5°F10.8°C 45.2°F7.3°C 79% 19.0 mph SE30.6 kmh SE 29.0 mph46.7 kmh 29.64 in1003.7 mb 0.00 in0.0 mm 0.00 in0.0 mm 0.04 in1.0 mm
10:35 AM 51.7°F10.9°C 45.3°F7.4°C 79% 16.0 mph SE25.7 kmh SE 28.0 mph45.1 kmh 29.64 in1003.7 mb 0.00 in0.0 mm 0.00 in0.0 mm 0.04 in1.0 mm
10:40 AM 51.9°F11.1°C 45.2°F7.3°C 78% 20.0 mph SE32.2 kmh SE 31.0 mph49.9 kmh 29.64 in1003.7 mb 0.00 in0.0 mm 0.00 in0.0 mm 0.04 in1.0 mm
10:45 AM 52.1°F11.2°C 45.7°F7.6°C 79% 24.0 mph SSE38.6 kmh SSE 27.0 mph43.5 kmh 29.64 in1003.7 mb 0.00 in0.0 mm 0.00 in0.0 mm 0.04 in1.0 mm
10:50 AM 52.5°F11.4°C 45.8°F7.7°C 78% 19.0 mph SSE30.6 kmh SSE 27.0 mph43.5 kmh 29.65 in1004.1 mb 0.00 in0.0 mm 0.00 in0.0 mm 0.04 in1.0 mm
10:55 AM 52.7°F11.5°C 46.0°F7.8°C 78% 24.0 mph S38.6 kmh S 28.0 mph45.1 kmh 29.64 in1003.7 mb 0.00 in0.0 mm 0.00 in0.0 mm 0.04 in1.0 mm
11:00 AM 53.0°F11.7°C 46.3°F7.9°C 78% 20.0 mph E32.2 kmh E 28.0 mph45.1 kmh 29.64 in1003.7 mb 0.00 in0.0 mm 0.00 in0.0 mm 0.04 in1.0 mm
11:05 AM 53.2°F11.8°C 46.1°F7.8°C 77% 19.0 mph SE30.6 kmh SE 31.0 mph49.9 kmh 29.63 in1003.4 mb 0.00 in0.0 mm 0.00 in0.0 mm 0.04 in1.0 mm
11:10 AM 53.4°F11.9°C 46.3°F7.9°C 77% 25.0 mph SE40.2 kmh SE 33.0 mph53.1 kmh 29.64 in1003.7 mb 0.00 in0.0 mm 0.00 in0.0 mm 0.04 in1.0 mm
11:15 AM 53.5°F11.9°C 46.4°F8.0°C 77% 22.0 mph SE35.4 kmh SE 36.0 mph57.9 kmh 29.63 in1003.4 mb 0.00 in0.0 mm 0.00 in0.0 mm 0.04 in1.0 mm
11:20 AM 53.6°F12.0°C 46.5°F8.1°C 77% 18.0 mph SE29.0 kmh SE 36.0 mph57.9 kmh 29.63 in1003.4 mb 0.00 in0.0 mm 0.00 in0.0 mm 0.04 in1.0 mm
11:25 AM 53.6°F12.0°C 46.5°F8.1°C 77% 17.0 mph S27.4 kmh S 30.0 mph48.3 kmh 29.63 in1003.4 mb 0.00 in0.0 mm 0.00 in0.0 mm 0.04 in1.0 mm
11:30 AM 53.7°F12.1°C 46.6°F8.1°C 77% 23.0 mph SSE37.0 kmh SSE 32.0 mph51.5 kmh 29.62 in1003.0 mb 0.00 in0.0 mm 0.00 in0.0 mm 0.04 in1.0 mm
11:35 AM 53.9°F12.2°C 46.8°F8.2°C 77% 14.0 mph SE22.5 kmh SE 34.0 mph54.7 kmh 29.62 in1003.0 mb 0.00 in0.0 mm 0.00 in0.0 mm 0.04 in1.0 mm
11:40 AM 54.0°F12.2°C 46.9°F8.3°C 77% 23.0 mph SE37.0 kmh SE 34.0 mph54.7 kmh 29.62 in1003.0 mb 0.00 in0.0 mm 0.00 in0.0 mm 0.04 in1.0 mm
11:45 AM 54.1°F12.3°C 47.0°F8.3°C 77% 31.0 mph ESE49.9 kmh ESE 33.0 mph53.1 kmh 29.61 in1002.7 mb 0.00 in0.0 mm 0.00 in0.0 mm 0.04 in1.0 mm
11:50 AM 54.3°F12.4°C 47.2°F8.4°C 77% 30.0 mph S48.3 kmh S 34.0 mph54.7 kmh 29.61 in1002.7 mb 0.00 in0.0 mm 0.00 in0.0 mm 0.04 in1.0 mm
11:55 AM 54.8°F12.7°C 47.7°F8.7°C 77% 22.0 mph SE35.4 kmh SE 41.0 mph66.0 kmh 29.61 in1002.7 mb 0.00 in0.0 mm 0.00 in0.0 mm 0.04 in1.0 mm
12:00 PM 55.1°F12.8°C 47.6°F8.7°C 76% 21.0 mph ESE33.8 kmh ESE 34.0 mph54.7 kmh 29.60 in1002.4 mb 0.00 in0.0 mm 0.00 in0.0 mm 0.04 in1.0 mm
12:05 PM 55.4°F13.0°C 47.9°F8.8°C 76% 26.0 mph SE41.8 kmh SE 34.0 mph54.7 kmh 29.60 in1002.4 mb 0.00 in0.0 mm 0.00 in0.0 mm 0.04 in1.0 mm
12:10 PM 55.8°F13.2°C 47.9°F8.8°C 75% 25.0 mph SE40.2 kmh SE 31.0 mph49.9 kmh 29.59 in1002.0 mb 0.00 in0.0 mm 0.00 in0.0 mm 0.04 in1.0 mm
12:15 PM 56.0°F13.3°C 48.1°F8.9°C 75% 16.0 mph ESE25.7 kmh ESE 36.0 mph57.9 kmh 29.60 in1002.4 mb 0.00 in0.0 mm 0.00 in0.0 mm 0.04 in1.0 mm
12:20 PM 56.2°F13.4°C 48.3°F9.1°C 75% 18.0 mph SE29.0 kmh SE 37.0 mph59.5 kmh 29.59 in1002.0 mb 0.00 in0.0 mm 0.00 in0.0 mm 0.04 in1.0 mm
12:25 PM 56.2°F13.4°C 48.0°F8.9°C 74% 25.0 mph SE40.2 kmh SE 36.0 mph57.9 kmh 29.59 in1002.0 mb 0.00 in0.0 mm 0.00 in0.0 mm 0.04 in1.0 mm
12:30 PM 56.2°F13.4°C 48.3°F9.1°C 75% 21.0 mph ESE33.8 kmh ESE 41.0 mph66.0 kmh 29.59 in1002.0 mb 0.00 in0.0 mm 0.00 in0.0 mm 0.04 in1.0 mm
12:35 PM 56.3°F13.5°C 48.4°F9.1°C 75% 19.0 mph ESE30.6 kmh ESE 34.0 mph54.7 kmh 29.59 in1002.0 mb 0.00 in0.0 mm 0.00 in0.0 mm 0.04 in1.0 mm
12:40 PM 56.4°F13.6°C 48.5°F9.2°C 75% 20.0 mph SE32.2 kmh SE 34.0 mph54.7 kmh 29.58 in1001.7 mb 0.00 in0.0 mm 0.00 in0.0 mm 0.04 in1.0 mm
12:45 PM 56.5°F13.6°C 48.3°F9.1°C 74% 21.0 mph SE33.8 kmh SE 42.0 mph67.6 kmh 29.58 in1001.7 mb 0.00 in0.0 mm 0.00 in0.0 mm 0.04 in1.0 mm
12:50 PM 56.5°F13.6°C 48.6°F9.2°C 75% 12.0 mph S19.3 kmh S 38.0 mph61.2 kmh 29.57 in1001.4 mb 0.00 in0.0 mm 0.00 in0.0 mm 0.04 in1.0 mm
12:55 PM 56.6°F13.7°C 48.7°F9.3°C 75% 17.0 mph ESE27.4 kmh ESE 31.0 mph49.9 kmh 29.57 in1001.4 mb 0.00 in0.0 mm 0.00 in0.0 mm 0.04 in1.0 mm
01:00 PM 56.8°F13.8°C 48.9°F9.4°C 75% 24.0 mph SE38.6 kmh SE 29.0 mph46.7 kmh 29.57 in1001.4 mb 0.00 in0.0 mm 0.00 in0.0 mm 0.04 in1.0 mm
01:05 PM 56.7°F13.7°C 48.8°F9.3°C 75% 22.0 mph SSE35.4 kmh SSE 33.0 mph53.1 kmh 29.57 in1001.4 mb 0.00 in0.0 mm 0.00 in0.0 mm 0.04 in1.0 mm
01:10 PM 56.7°F13.7°C 48.8°F9.3°C 75% 21.0 mph SE33.8 kmh SE 36.0 mph57.9 kmh 29.56 in1001.0 mb 0.00 in0.0 mm 0.00 in0.0 mm 0.04 in1.0 mm
01:15 PM 56.6°F13.7°C 48.7°F9.3°C 75% 29.0 mph SE46.7 kmh SE 35.0 mph56.3 kmh 29.56 in1001.0 mb 0.00 in0.0 mm 0.00 in0.0 mm 0.04 in1.0 mm
01:20 PM 56.6°F13.7°C 48.7°F9.3°C 75% 19.0 mph SE30.6 kmh SE 32.0 mph51.5 kmh 29.56 in1001.0 mb 0.00 in0.0 mm 0.00 in0.0 mm 0.04 in1.0 mm
01:25 PM 56.6°F13.7°C 48.7°F9.3°C 75% 18.0 mph SE29.0 kmh SE 32.0 mph51.5 kmh 29.56 in1001.0 mb 0.00 in0.0 mm 0.00 in0.0 mm 0.04 in1.0 mm
01:30 PM 56.5°F13.6°C 49.0°F9.4°C 76% 26.0 mph SE41.8 kmh SE 37.0 mph59.5 kmh 29.56 in1001.0 mb 0.00 in0.0 mm 0.00 in0.0 mm 0.04 in1.0 mm
01:35 PM 56.6°F13.7°C 49.1°F9.5°C 76% 17.0 mph ESE27.4 kmh ESE 40.0 mph64.4 kmh 29.55 in1000.7 mb 0.00 in0.0 mm 0.00 in0.0 mm 0.04 in1.0 mm
01:40 PM 56.7°F13.7°C 49.2°F9.6°C 76% 26.0 mph SE41.8 kmh SE 28.0 mph45.1 kmh 29.55 in1000.7 mb 0.00 in0.0 mm 0.00 in0.0 mm 0.04 in1.0 mm
01:45 PM 56.7°F13.7°C 49.2°F9.6°C 76% 19.0 mph SSE30.6 kmh SSE 33.0 mph53.1 kmh 29.55 in1000.7 mb 0.00 in0.0 mm 0.00 in0.0 mm 0.04 in1.0 mm
01:50 PM 56.8°F13.8°C 49.3°F9.6°C 76% 18.0 mph SE29.0 kmh SE 31.0 mph49.9 kmh 29.56 in1001.0 mb 0.00 in0.0 mm 0.00 in0.0 mm 0.04 in1.0 mm
01:55 PM 56.8°F13.8°C 49.3°F9.6°C 76% 23.0 mph SE37.0 kmh SE 36.0 mph57.9 kmh 29.55 in1000.7 mb 0.00 in0.0 mm 0.00 in0.0 mm 0.04 in1.0 mm
02:00 PM 56.9°F13.8°C 49.4°F9.7°C 76% 11.0 mph SE17.7 kmh SE 30.0 mph48.3 kmh 29.56 in1001.0 mb 0.00 in0.0 mm 0.00 in0.0 mm 0.04 in1.0 mm
02:05 PM 56.9°F13.8°C 49.4°F9.7°C 76% 21.0 mph SE33.8 kmh SE 29.0 mph46.7 kmh 29.55 in1000.7 mb 0.00 in0.0 mm 0.00 in0.0 mm 0.04 in1.0 mm
02:10 PM 57.0°F13.9°C 49.5°F9.7°C 76% 18.0 mph SE29.0 kmh SE 35.0 mph56.3 kmh 29.57 in1001.4 mb 0.00 in0.0 mm 0.00 in0.0 mm 0.04 in1.0 mm
02:15 PM 57.0°F13.9°C 49.5°F9.7°C 76% 15.0 mph SE24.1 kmh SE 35.0 mph56.3 kmh 29.56 in1001.0 mb 0.00 in0.0 mm 0.00 in0.0 mm 0.04 in1.0 mm
02:20 PM 57.0°F13.9°C 49.5°F9.7°C 76% 17.0 mph SSE27.4 kmh SSE 30.0 mph48.3 kmh 29.54 in1000.3 mb 0.00 in0.0 mm 0.00 in0.0 mm 0.04 in1.0 mm
02:25 PM 57.1°F13.9°C 49.6°F9.8°C 76% 22.0 mph SE35.4 kmh SE 26.0 mph41.8 kmh 29.55 in1000.7 mb 0.00 in0.0 mm 0.00 in0.0 mm 0.04 in1.0 mm
02:30 PM 57.1°F13.9°C 49.6°F9.8°C 76% 20.0 mph SE32.2 kmh SE 28.0 mph45.1 kmh 29.55 in1000.7 mb 0.00 in0.0 mm 0.00 in0.0 mm 0.04 in1.0 mm
02:35 PM 57.1°F13.9°C 49.6°F9.8°C 76% 13.0 mph SE20.9 kmh SE 26.0 mph41.8 kmh 29.55 in1000.7 mb 0.00 in0.0 mm 0.00 in0.0 mm 0.04 in1.0 mm
02:40 PM 57.1°F13.9°C 49.6°F9.8°C 76% 11.0 mph SE17.7 kmh SE 27.0 mph43.5 kmh 29.54 in1000.3 mb 0.00 in0.0 mm 0.00 in0.0 mm 0.04 in1.0 mm
02:45 PM 57.1°F13.9°C 49.6°F9.8°C 76% 17.0 mph E27.4 kmh E 26.0 mph41.8 kmh 29.54 in1000.3 mb 0.00 in0.0 mm 0.00 in0.0 mm 0.04 in1.0 mm
02:50 PM 57.1°F13.9°C 49.6°F9.8°C 76% 18.0 mph SSE29.0 kmh SSE 25.0 mph40.2 kmh 29.54 in1000.3 mb 0.00 in0.0 mm 0.00 in0.0 mm 0.04 in1.0 mm
02:55 PM 57.2°F14.0°C 49.7°F9.8°C 76% 18.0 mph SE29.0 kmh SE 25.0 mph40.2 kmh 29.53 in1000.0 mb 0.00 in0.0 mm 0.00 in0.0 mm 0.04 in1.0 mm
03:00 PM 57.2°F14.0°C 49.7°F9.8°C 76% 16.0 mph ESE25.7 kmh ESE 27.0 mph43.5 kmh 29.53 in1000.0 mb 0.00 in0.0 mm 0.00 in0.0 mm 0.04 in1.0 mm
03:05 PM 57.2°F14.0°C 50.0°F10.0°C 77% 14.0 mph SSE22.5 kmh SSE 26.0 mph41.8 kmh 29.53 in1000.0 mb 0.00 in0.0 mm 0.00 in0.0 mm 0.04 in1.0 mm
03:10 PM 57.2°F14.0°C 50.0°F10.0°C 77% 16.0 mph SSE25.7 kmh SSE 26.0 mph41.8 kmh 29.53 in1000.0 mb 0.00 in0.0 mm 0.00 in0.0 mm 0.04 in1.0 mm
03:15 PM 57.2°F14.0°C 50.0°F10.0°C 77% 8.0 mph SE12.9 kmh SE 22.0 mph35.4 kmh 29.53 in1000.0 mb 0.00 in0.0 mm 0.00 in0.0 mm 0.04 in1.0 mm
03:20 PM 57.1°F13.9°C 49.9°F9.9°C 77% 17.0 mph E27.4 kmh E 24.0 mph38.6 kmh 29.53 in1000.0 mb 0.00 in0.0 mm 0.00 in0.0 mm 0.04 in1.0 mm
03:25 PM 57.1°F13.9°C 49.9°F9.9°C 77% 16.0 mph SE25.7 kmh SE 26.0 mph41.8 kmh 29.53 in1000.0 mb 0.00 in0.0 mm 0.00 in0.0 mm 0.04 in1.0 mm
03:30 PM 57.0°F13.9°C 49.8°F9.9°C 77% 12.0 mph SSE19.3 kmh SSE 28.0 mph45.1 kmh 29.53 in1000.0 mb 0.00 in0.0 mm 0.00 in0.0 mm 0.04 in1.0 mm
03:35 PM 57.0°F13.9°C 49.8°F9.9°C 77% 16.0 mph SE25.7 kmh SE 28.0 mph45.1 kmh 29.52 in999.7 mb 0.00 in0.0 mm 0.00 in0.0 mm 0.04 in1.0 mm
03:40 PM 57.0°F13.9°C 49.8°F9.9°C 77% 20.0 mph E32.2 kmh E 28.0 mph45.1 kmh 29.51 in999.3 mb 0.00 in0.0 mm 0.00 in0.0 mm 0.04 in1.0 mm
03:45 PM 57.0°F13.9°C 49.8°F9.9°C 77% 14.0 mph SSE22.5 kmh SSE 30.0 mph48.3 kmh 29.51 in999.3 mb 0.00 in0.0 mm 0.00 in0.0 mm 0.04 in1.0 mm
03:50 PM 56.8°F13.8°C 49.6°F9.8°C 77% 18.0 mph SSE29.0 kmh SSE 27.0 mph43.5 kmh 29.51 in999.3 mb 0.00 in0.0 mm 0.00 in0.0 mm 0.04 in1.0 mm
03:55 PM 56.8°F13.8°C 49.6°F9.8°C 77% 16.0 mph SE25.7 kmh SE 28.0 mph45.1 kmh 29.51 in999.3 mb 0.00 in0.0 mm 0.00 in0.0 mm 0.04 in1.0 mm
04:00 PM 56.9°F13.8°C 49.7°F9.8°C 77% 17.0 mph SE27.4 kmh SE 27.0 mph43.5 kmh 29.51 in999.3 mb 0.00 in0.0 mm 0.00 in0.0 mm 0.04 in1.0 mm
04:05 PM 57.0°F13.9°C 49.8°F9.9°C 77% 16.0 mph SE25.7 kmh SE 29.0 mph46.7 kmh 29.50 in999.0 mb 0.00 in0.0 mm 0.00 in0.0 mm 0.04 in1.0 mm
04:10 PM 57.1°F13.9°C 49.9°F9.9°C 77% 15.0 mph SE24.1 kmh SE 25.0 mph40.2 kmh 29.50 in999.0 mb 0.00 in0.0 mm 0.00 in0.0 mm 0.04 in1.0 mm
04:15 PM 57.0°F13.9°C 49.8°F9.9°C 77% 8.0 mph SSE12.9 kmh SSE 24.0 mph38.6 kmh 29.50 in999.0 mb 0.00 in0.0 mm 0.00 in0.0 mm 0.04 in1.0 mm
04:20 PM 57.0°F13.9°C 50.2°F10.1°C 78% 20.0 mph SE32.2 kmh SE 27.0 mph43.5 kmh 29.50 in999.0 mb 0.00 in0.0 mm 0.00 in0.0 mm 0.04 in1.0 mm
04:25 PM 57.1°F13.9°C 49.9°F9.9°C 77% 16.0 mph SSE25.7 kmh SSE 30.0 mph48.3 kmh 29.50 in999.0 mb 0.00 in0.0 mm 0.00 in0.0 mm 0.04 in1.0 mm
04:30 PM 57.0°F13.9°C 50.2°F10.1°C 78% 15.0 mph SE24.1 kmh SE 26.0 mph41.8 kmh 29.50 in999.0 mb 0.00 in0.0 mm 0.00 in0.0 mm 0.04 in1.0 mm
04:35 PM 57.1°F13.9°C 49.9°F9.9°C 77% 23.0 mph S37.0 kmh S 29.0 mph46.7 kmh 29.50 in999.0 mb 0.00 in0.0 mm 0.00 in0.0 mm 0.04 in1.0 mm
04:40 PM 57.1°F13.9°C 49.9°F9.9°C 77% 10.0 mph E16.1 kmh E 21.0 mph33.8 kmh 29.51 in999.3 mb 0.00 in0.0 mm 0.00 in0.0 mm 0.04 in1.0 mm
04:45 PM 57.2°F14.0°C 50.0°F10.0°C 77% 10.0 mph SE16.1 kmh SE 26.0 mph41.8 kmh 29.51 in999.3 mb 0.00 in0.0 mm 0.00 in0.0 mm 0.04 in1.0 mm
04:50 PM 57.2°F14.0°C 50.4°F10.2°C 78% 14.0 mph SE22.5 kmh SE 24.0 mph38.6 kmh 29.51 in999.3 mb 0.00 in0.0 mm 0.00 in0.0 mm 0.04 in1.0 mm
04:55 PM 57.2°F14.0°C 50.4°F10.2°C 78% 16.0 mph SE25.7 kmh SE 22.0 mph35.4 kmh 29.50 in999.0 mb 0.00 in0.0 mm 0.00 in0.0 mm 0.04 in1.0 mm
05:00 PM 57.3°F14.1°C 50.4°F10.2°C 78% 19.0 mph SE30.6 kmh SE 27.0 mph43.5 kmh 29.50 in999.0 mb 0.00 in0.0 mm 0.00 in0.0 mm 0.04 in1.0 mm
05:05 PM 57.2°F14.0°C 50.4°F10.2°C 78% 14.0 mph E22.5 kmh E 23.0 mph37.0 kmh 29.50 in999.0 mb 0.00 in0.0 mm 0.00 in0.0 mm 0.04 in1.0 mm
05:10 PM 57.2°F14.0°C 50.4°F10.2°C 78% 15.0 mph SE24.1 kmh SE 23.0 mph37.0 kmh 29.50 in999.0 mb 0.00 in0.0 mm 0.00 in0.0 mm 0.04 in1.0 mm
05:15 PM 57.2°F14.0°C 50.4°F10.2°C 78% 15.0 mph SE24.1 kmh SE 24.0 mph38.6 kmh 29.50 in999.0 mb 0.00 in0.0 mm 0.00 in0.0 mm 0.04 in1.0 mm
05:20 PM 57.3°F14.1°C 50.4°F10.2°C 78% 15.0 mph SSE24.1 kmh SSE 25.0 mph40.2 kmh 29.49 in998.6 mb 0.00 in0.0 mm 0.00 in0.0 mm 0.04 in1.0 mm
05:25 PM 57.3°F14.1°C 50.4°F10.2°C 78% 15.0 mph ESE24.1 kmh ESE 24.0 mph38.6 kmh 29.48 in998.3 mb 0.00 in0.0 mm 0.00 in0.0 mm 0.04 in1.0 mm
05:30 PM 57.3°F14.1°C 50.4°F10.2°C 78% 21.0 mph SE33.8 kmh SE 26.0 mph41.8 kmh 29.47 in998.0 mb 0.00 in0.0 mm 0.00 in0.0 mm 0.04 in1.0 mm
05:35 PM 57.3°F14.1°C 50.4°F10.2°C 78% 19.0 mph SE30.6 kmh SE 26.0 mph41.8 kmh 29.47 in998.0 mb 0.00 in0.0 mm 0.00 in0.0 mm 0.04 in1.0 mm
05:40 PM 57.3°F14.1°C 50.8°F10.4°C 79% 15.0 mph SSE24.1 kmh SSE 25.0 mph40.2 kmh 29.47 in998.0 mb 0.00 in0.0 mm 0.00 in0.0 mm 0.04 in1.0 mm
05:45 PM 57.3°F14.1°C 50.8°F10.4°C 79% 16.0 mph SE25.7 kmh SE 25.0 mph40.2 kmh 29.47 in998.0 mb 0.00 in0.0 mm 0.00 in0.0 mm 0.04 in1.0 mm
05:50 PM 57.3°F14.1°C 50.8°F10.4°C 79% 14.0 mph SE22.5 kmh SE 27.0 mph43.5 kmh 29.47 in998.0 mb 0.00 in0.0 mm 0.00 in0.0 mm 0.04 in1.0 mm
05:55 PM 57.4°F14.1°C 50.5°F10.3°C 78% 17.0 mph ESE27.4 kmh ESE 29.0 mph46.7 kmh 29.47 in998.0 mb 0.00 in0.0 mm 0.00 in0.0 mm 0.04 in1.0 mm
06:00 PM 57.4°F14.1°C 50.5°F10.3°C 78% 16.0 mph SSE25.7 kmh SSE 27.0 mph43.5 kmh 29.47 in998.0 mb 0.00 in0.0 mm 0.00 in0.0 mm 0.04 in1.0 mm
06:05 PM 57.5°F14.2°C 50.6°F10.3°C 78% 18.0 mph SE29.0 kmh SE 27.0 mph43.5 kmh 29.47 in998.0 mb 0.00 in0.0 mm 0.00 in0.0 mm 0.04 in1.0 mm
06:10 PM 57.6°F14.2°C 50.7°F10.4°C 78% 14.0 mph ENE22.5 kmh ENE 28.0 mph45.1 kmh 29.46 in997.6 mb 0.00 in0.0 mm 0.00 in0.0 mm 0.04 in1.0 mm
06:15 PM 57.6°F14.2°C 50.7°F10.4°C 78% 19.0 mph SE30.6 kmh SE 23.0 mph37.0 kmh 29.46 in997.6 mb 0.00 in0.0 mm 0.00 in0.0 mm 0.04 in1.0 mm
06:20 PM 57.6°F14.2°C 50.7°F10.4°C 78% 17.0 mph ESE27.4 kmh ESE 26.0 mph41.8 kmh 29.47 in998.0 mb 0.00 in0.0 mm 0.00 in0.0 mm 0.04 in1.0 mm
06:25 PM 57.6°F14.2°C 50.7°F10.4°C 78% 11.0 mph SE17.7 kmh SE 21.0 mph33.8 kmh 29.47 in998.0 mb 0.00 in0.0 mm 0.00 in0.0 mm 0.04 in1.0 mm
06:30 PM 57.6°F14.2°C 50.7°F10.4°C 78% 21.0 mph SE33.8 kmh SE 26.0 mph41.8 kmh 29.47 in998.0 mb 0.00 in0.0 mm 0.00 in0.0 mm 0.04 in1.0 mm
06:35 PM 57.5°F14.2°C 51.0°F10.6°C 79% 9.0 mph SE14.5 kmh SE 26.0 mph41.8 kmh 29.47 in998.0 mb 0.00 in0.0 mm 0.00 in0.0 mm 0.04 in1.0 mm
06:40 PM 57.5°F14.2°C 51.0°F10.6°C 79% 12.0 mph ESE19.3 kmh ESE 24.0 mph38.6 kmh 29.48 in998.3 mb 0.00 in0.0 mm 0.00 in0.0 mm 0.04 in1.0 mm
06:45 PM 57.4°F14.1°C 50.9°F10.5°C 79% 19.0 mph SE30.6 kmh SE 27.0 mph43.5 kmh 29.47 in998.0 mb 0.00 in0.0 mm 0.00 in0.0 mm 0.04 in1.0 mm
06:50 PM 57.4°F14.1°C 50.9°F10.5°C 79% 13.0 mph SSE20.9 kmh SSE 29.0 mph46.7 kmh 29.47 in998.0 mb 0.00 in0.0 mm 0.00 in0.0 mm 0.04 in1.0 mm
06:55 PM 57.5°F14.2°C 51.0°F10.6°C 79% 19.0 mph SE30.6 kmh SE 25.0 mph40.2 kmh 29.47 in998.0 mb 0.00 in0.0 mm 0.00 in0.0 mm 0.04 in1.0 mm
07:00 PM 57.4°F14.1°C 50.9°F10.5°C 79% 17.0 mph E27.4 kmh E 26.0 mph41.8 kmh 29.46 in997.6 mb 0.00 in0.0 mm 0.00 in0.0 mm 0.04 in1.0 mm
07:05 PM 57.5°F14.2°C 51.0°F10.6°C 79% 16.0 mph SE25.7 kmh SE 26.0 mph41.8 kmh 29.46 in997.6 mb 0.00 in0.0 mm 0.00 in0.0 mm 0.04 in1.0 mm
07:10 PM 57.5°F14.2°C 51.3°F10.7°C 80% 17.0 mph SE27.4 kmh SE 25.0 mph40.2 kmh 29.46 in997.6 mb 0.00 in0.0 mm 0.00 in0.0 mm 0.04 in1.0 mm
07:15 PM 57.6°F14.2°C 51.4°F10.8°C 80% 16.0 mph SE25.7 kmh SE 28.0 mph45.1 kmh 29.46 in997.6 mb 0.00 in0.0 mm 0.00 in0.0 mm 0.04 in1.0 mm
07:20 PM 57.6°F14.2°C 51.4°F10.8°C 80% 19.0 mph SE30.6 kmh SE 33.0 mph53.1 kmh 29.46 in997.6 mb 0.00 in0.0 mm 0.00 in0.0 mm 0.04 in1.0 mm
07:25 PM 57.6°F14.2°C 51.4°F10.8°C 80% 19.0 mph SE30.6 kmh SE 30.0 mph48.3 kmh 29.46 in997.6 mb 0.00 in0.0 mm 0.00 in0.0 mm 0.04 in1.0 mm
07:30 PM 57.5°F14.2°C 51.3°F10.7°C 80% 20.0 mph SE32.2 kmh SE 28.0 mph45.1 kmh 29.46 in997.6 mb 0.00 in0.0 mm 0.00 in0.0 mm 0.04 in1.0 mm
07:35 PM 57.5°F14.2°C 51.3°F10.7°C 80% 14.0 mph SE22.5 kmh SE 29.0 mph46.7 kmh 29.46 in997.6 mb 0.00 in0.0 mm 0.00 in0.0 mm 0.04 in1.0 mm
07:40 PM 57.4°F14.1°C 51.2°F10.7°C 80% 15.0 mph SE24.1 kmh SE 26.0 mph41.8 kmh 29.46 in997.6 mb 0.00 in0.0 mm 0.00 in0.0 mm 0.04 in1.0 mm
07:45 PM 57.2°F14.0°C 51.0°F10.6°C 80% 22.0 mph SE35.4 kmh SE 23.0 mph37.0 kmh 29.46 in997.6 mb 0.00 in0.0 mm 0.00 in0.0 mm 0.04 in1.0 mm
07:50 PM 57.2°F14.0°C 51.4°F10.8°C 81% 18.0 mph SSE29.0 kmh SSE 29.0 mph46.7 kmh 29.46 in997.6 mb 0.00 in0.0 mm 0.00 in0.0 mm 0.04 in1.0 mm
07:55 PM 57.1°F13.9°C 51.3°F10.7°C 81% 17.0 mph ESE27.4 kmh ESE 23.0 mph37.0 kmh 29.47 in998.0 mb 0.00 in0.0 mm 0.00 in0.0 mm 0.04 in1.0 mm
08:00 PM 57.0°F13.9°C 51.2°F10.7°C 81% 15.0 mph SSE24.1 kmh SSE 26.0 mph41.8 kmh 29.47 in998.0 mb 0.00 in0.0 mm 0.00 in0.0 mm 0.04 in1.0 mm
08:05 PM 56.9°F13.8°C 51.1°F10.6°C 81% 14.0 mph W22.5 kmh W 21.0 mph33.8 kmh 29.47 in998.0 mb 0.00 in0.0 mm 0.00 in0.0 mm 0.04 in1.0 mm
08:10 PM 57.0°F13.9°C 51.2°F10.7°C 81% 13.0 mph SSE20.9 kmh SSE 24.0 mph38.6 kmh 29.48 in998.3 mb 0.00 in0.0 mm 0.00 in0.0 mm 0.04 in1.0 mm
08:15 PM 57.0°F13.9°C 51.5°F10.8°C 82% 12.0 mph SE19.3 kmh SE 27.0 mph43.5 kmh 29.48 in998.3 mb 0.00 in0.0 mm 0.00 in0.0 mm 0.04 in1.0 mm
08:20 PM 56.9°F13.8°C 51.4°F10.8°C 82% 13.0 mph ESE20.9 kmh ESE 23.0 mph37.0 kmh 29.47 in998.0 mb 0.00 in0.0 mm 0.00 in0.0 mm 0.04 in1.0 mm
08:25 PM 56.9°F13.8°C 51.4°F10.8°C 82% 19.0 mph SE30.6 kmh SE 23.0 mph37.0 kmh 29.47 in998.0 mb 0.00 in0.0 mm 0.00 in0.0 mm 0.04 in1.0 mm
08:30 PM 56.9°F13.8°C 51.4°F10.8°C 82% 19.0 mph SE30.6 kmh SE 24.0 mph38.6 kmh 29.47 in998.0 mb 0.00 in0.0 mm 0.00 in0.0 mm 0.04 in1.0 mm
08:35 PM 56.9°F13.8°C 51.4°F10.8°C 82% 16.0 mph S25.7 kmh S 23.0 mph37.0 kmh 29.47 in998.0 mb 0.00 in0.0 mm 0.00 in0.0 mm 0.04 in1.0 mm
08:40 PM 56.8°F13.8°C 51.3°F10.7°C 82% 14.0 mph SE22.5 kmh SE 24.0 mph38.6 kmh 29.47 in998.0 mb 0.00 in0.0 mm 0.00 in0.0 mm 0.04 in1.0 mm
08:45 PM 56.8°F13.8°C 51.3°F10.7°C 82% 15.0 mph SE24.1 kmh SE 24.0 mph38.6 kmh 29.47 in998.0 mb 0.00 in0.0 mm 0.00 in0.0 mm 0.04 in1.0 mm
08:50 PM 56.9°F13.8°C 51.4°F10.8°C 82% 12.0 mph SE19.3 kmh SE 24.0 mph38.6 kmh 29.47 in998.0 mb 0.00 in0.0 mm 0.00 in0.0 mm 0.04 in1.0 mm
08:55 PM 56.8°F13.8°C 51.3°F10.7°C 82% 15.0 mph SE24.1 kmh SE 21.0 mph33.8 kmh 29.47 in998.0 mb 0.00 in0.0 mm 0.00 in0.0 mm 0.04 in1.0 mm
09:00 PM 56.8°F13.8°C 51.3°F10.7°C 82% 11.0 mph SE17.7 kmh SE 21.0 mph33.8 kmh 29.48 in998.3 mb 0.00 in0.0 mm 0.00 in0.0 mm 0.04 in1.0 mm
09:05 PM 56.8°F13.8°C 51.3°F10.7°C 82% 15.0 mph SSE24.1 kmh SSE 22.0 mph35.4 kmh 29.48 in998.3 mb 0.00 in0.0 mm 0.00 in0.0 mm 0.04 in1.0 mm
09:10 PM 56.9°F13.8°C 51.4°F10.8°C 82% 9.0 mph S14.5 kmh S 21.0 mph33.8 kmh 29.49 in998.6 mb 0.00 in0.0 mm 0.00 in0.0 mm 0.04 in1.0 mm
09:15 PM 56.9°F13.8°C 51.4°F10.8°C 82% 9.0 mph SE14.5 kmh SE 22.0 mph35.4 kmh 29.49 in998.6 mb 0.00 in0.0 mm 0.00 in0.0 mm 0.04 in1.0 mm
09:20 PM 56.9°F13.8°C 51.4°F10.8°C 82% 15.0 mph SE24.1 kmh SE 19.0 mph30.6 kmh 29.49 in998.6 mb 0.00 in0.0 mm 0.00 in0.0 mm 0.04 in1.0 mm
09:25 PM 56.9°F13.8°C 51.7°F10.9°C 83% 18.0 mph S29.0 kmh S 24.0 mph38.6 kmh 29.49 in998.6 mb 0.00 in0.0 mm 0.00 in0.0 mm 0.04 in1.0 mm
09:30 PM 56.9°F13.8°C 51.7°F10.9°C 83% 12.0 mph SE19.3 kmh SE 23.0 mph37.0 kmh 29.49 in998.6 mb 0.00 in0.0 mm 0.00 in0.0 mm 0.04 in1.0 mm
09:35 PM 56.9°F13.8°C 51.7°F10.9°C 83% 12.0 mph SE19.3 kmh SE 22.0 mph35.4 kmh 29.48 in998.3 mb 0.00 in0.0 mm 0.00 in0.0 mm 0.04 in1.0 mm
09:40 PM 56.9°F13.8°C 51.7°F10.9°C 83% 14.0 mph SE22.5 kmh SE 18.0 mph29.0 kmh 29.49 in998.6 mb 0.00 in0.0 mm 0.00 in0.0 mm 0.04 in1.0 mm
09:45 PM 56.9°F13.8°C 52.1°F11.2°C 84% 10.0 mph SSE16.1 kmh SSE 20.0 mph32.2 kmh 29.49 in998.6 mb 0.00 in0.0 mm 0.00 in0.0 mm 0.04 in1.0 mm
09:50 PM 56.9°F13.8°C 52.1°F11.2°C 84% 12.0 mph SE19.3 kmh SE 20.0 mph32.2 kmh 29.48 in998.3 mb 0.00 in0.0 mm 0.00 in0.0 mm 0.04 in1.0 mm
09:55 PM 57.1°F13.9°C 52.3°F11.3°C 84% 11.0 mph SSE17.7 kmh SSE 21.0 mph33.8 kmh 29.48 in998.3 mb 0.00 in0.0 mm 0.00 in0.0 mm 0.04 in1.0 mm
10:00 PM 57.1°F13.9°C 52.3°F11.3°C 84% 8.0 mph SE12.9 kmh SE 21.0 mph33.8 kmh 29.49 in998.6 mb 0.00 in0.0 mm 0.00 in0.0 mm 0.04 in1.0 mm
10:05 PM 57.1°F13.9°C 52.3°F11.3°C 84% 12.0 mph SE19.3 kmh SE 20.0 mph32.2 kmh 29.48 in998.3 mb 0.00 in0.0 mm 0.00 in0.0 mm 0.04 in1.0 mm
10:10 PM 57.1°F13.9°C 52.3°F11.3°C 84% 14.0 mph SE22.5 kmh SE 22.0 mph35.4 kmh 29.48 in998.3 mb 0.00 in0.0 mm 0.00 in0.0 mm 0.04 in1.0 mm
10:15 PM 57.0°F13.9°C 52.2°F11.2°C 84% 14.0 mph SE22.5 kmh SE 19.0 mph30.6 kmh 29.48 in998.3 mb 0.00 in0.0 mm 0.00 in0.0 mm 0.04 in1.0 mm
10:20 PM 57.0°F13.9°C 52.2°F11.2°C 84% 11.0 mph SE17.7 kmh SE 21.0 mph33.8 kmh 29.48 in998.3 mb 0.00 in0.0 mm 0.00 in0.0 mm 0.04 in1.0 mm
10:25 PM 57.0°F13.9°C 52.2°F11.2°C 84% 11.0 mph SE17.7 kmh SE 19.0 mph30.6 kmh 29.48 in998.3 mb 0.00 in0.0 mm 0.00 in0.0 mm 0.04 in1.0 mm
10:30 PM 56.9°F13.8°C 52.1°F11.2°C 84% 12.0 mph SSE19.3 kmh SSE 19.0 mph30.6 kmh 29.48 in998.3 mb 0.00 in0.0 mm 0.00 in0.0 mm 0.04 in1.0 mm
10:35 PM 56.9°F13.8°C 52.1°F11.2°C 84% 13.0 mph SE20.9 kmh SE 16.0 mph25.7 kmh 29.48 in998.3 mb 0.00 in0.0 mm 0.00 in0.0 mm 0.04 in1.0 mm
10:40 PM 56.9°F13.8°C 52.1°F11.2°C 84% 12.0 mph SE19.3 kmh SE 18.0 mph29.0 kmh 29.48 in998.3 mb 0.00 in0.0 mm 0.00 in0.0 mm 0.04 in1.0 mm
10:45 PM 56.9°F13.8°C 52.1°F11.2°C 84% 10.0 mph SE16.1 kmh SE 16.0 mph25.7 kmh 29.48 in998.3 mb 0.00 in0.0 mm 0.00 in0.0 mm 0.04 in1.0 mm
10:50 PM 56.8°F13.8°C 52.0°F11.1°C 84% 12.0 mph S19.3 kmh S 16.0 mph25.7 kmh 29.48 in998.3 mb 0.00 in0.0 mm 0.00 in0.0 mm 0.04 in1.0 mm
10:55 PM 56.8°F13.8°C 52.3°F11.3°C 85% 16.0 mph ESE25.7 kmh ESE 18.0 mph29.0 kmh 29.48 in998.3 mb 0.00 in0.0 mm 0.00 in0.0 mm 0.04 in1.0 mm
11:00 PM 56.9°F13.8°C 52.4°F11.3°C 85% 16.0 mph SE25.7 kmh SE 20.0 mph32.2 kmh 29.47 in998.0 mb 0.00 in0.0 mm 0.00 in0.0 mm 0.04 in1.0 mm
11:01 PM 56.9°F13.8°C 51.7°F10.9°C 83% 18.0 mph S29.0 kmh S 24.0 mph38.6 kmh 29.49 in998.6 mb 0.00 in0.0 mm 0.00 in0.0 mm 0.04 in1.0 mm
11:05 PM 56.9°F13.8°C 52.4°F11.3°C 85% 10.0 mph SSE16.1 kmh SSE 18.0 mph29.0 kmh 29.48 in998.3 mb 0.00 in0.0 mm 0.00 in0.0 mm 0.04 in1.0 mm
11:10 PM 56.9°F13.8°C 52.4°F11.3°C 85% 14.0 mph SE22.5 kmh SE 18.0 mph29.0 kmh 29.48 in998.3 mb 0.00 in0.0 mm 0.00 in0.0 mm 0.04 in1.0 mm
11:15 PM 56.9°F13.8°C 52.4°F11.3°C 85% 17.0 mph SE27.4 kmh SE 21.0 mph33.8 kmh 29.48 in998.3 mb 0.00 in0.0 mm 0.00 in0.0 mm 0.04 in1.0 mm
11:20 PM 56.8°F13.8°C 52.3°F11.3°C 85% 13.0 mph SE20.9 kmh SE 19.0 mph30.6 kmh 29.47 in998.0 mb 0.00 in0.0 mm 0.00 in0.0 mm 0.04 in1.0 mm
11:25 PM 56.7°F13.7°C 52.2°F11.2°C 85% 14.0 mph ESE22.5 kmh ESE 18.0 mph29.0 kmh 29.47 in998.0 mb 0.00 in0.0 mm 0.00 in0.0 mm 0.04 in1.0 mm
11:30 PM 56.6°F13.7°C 51.8°F11.0°C 84% 11.0 mph SE17.7 kmh SE 19.0 mph30.6 kmh 29.48 in998.3 mb 0.00 in0.0 mm 0.00 in0.0 mm 0.04 in1.0 mm
11:35 PM 56.5°F13.6°C 51.7°F10.9°C 84% 16.0 mph SE25.7 kmh SE 18.0 mph29.0 kmh 29.48 in998.3 mb 0.00 in0.0 mm 0.00 in0.0 mm 0.04 in1.0 mm
11:40 PM 56.4°F13.6°C 51.9°F11.1°C 85% 10.0 mph ESE16.1 kmh ESE 20.0 mph32.2 kmh 29.48 in998.3 mb 0.00 in0.0 mm 0.00 in0.0 mm 0.04 in1.0 mm
11:45 PM 56.3°F13.5°C 51.8°F11.0°C 85% 15.0 mph SE24.1 kmh SE 18.0 mph29.0 kmh 29.47 in998.0 mb 0.00 in0.0 mm 0.00 in0.0 mm 0.04 in1.0 mm
11:50 PM 56.3°F13.5°C 51.8°F11.0°C 85% 13.0 mph SSE20.9 kmh SSE 18.0 mph29.0 kmh 29.47 in998.0 mb 0.00 in0.0 mm 0.00 in0.0 mm 0.04 in1.0 mm
11:55 PM 56.2°F13.4°C 51.7°F10.9°C 85% 12.0 mph ESE19.3 kmh ESE 16.0 mph25.7 kmh 29.47 in998.0 mb 0.00 in0.0 mm 0.00 in0.0 mm 0.04 in1.0 mm